Columbus, Ohio
Traffic Map
Current Weather Conditions
Columbus, Ohio
Overcast Light Rain
Overcast
26°
Feels Like: 28°
Wind Chill: 26° Ceiling: 3700
Heat Index: 28° Visibility: 8mi
Dew Point: 24° Wind: 3mph
Humidity: 90% Direction: 210° (SSW)
Pressure: 29.96in Gusts: 0mph
Raw Report DataKCMH 210851Z 21003KT 8SM -RA BKN037 BKN050 OVC060 26/24 A2996 RMK AO2 LTG DSNT N AND NW RAB42 SLP137 OCNL LTGICCCCG DSNT NW-N CB DSNT NW-N MOV SE P0000 60000 T02610244 55007
Traffic Incident Summary
Active as of:
Severity:
Category:
InformationThere was an issue retrieving the traffic information for this location. Please try a different location or try again shortly.
Advertisements
Track Severe Weather on mobile